Des Moines, IA (50311)

12:18 AM CST on January 17, 2017 (GMT -0600)
Waveland | | Change Station

Elev 977 ft 41.60 °N, 93.68 °W | Updated 25 seconds ago

Fog
Fog
33.4 °F
Feels Like 33 °F
N
0.2
Wind Variable Wind from SSW
Gusts 2.5 mph

Today
High -- | Low -- °F
--% Chance of Precip.
Yesterday
High -- | Low -- °F
Precip. -- in
Pressure 29.91 in
Visibility 0.2 miles
Clouds Overcast 200 ft
Windchill 33 °F
Dew Point 33 °F
Humidity 99%
Rainfall 0.01 in
Snow Depth Not available.
7:37 AM 5:12 PM
Waning Gibbous, 75% visible
METAR KDSM 170554Z 32009KT 1/4SM R31/6000VP6000FT BR OVC002 01/01 A2988 RMK AO2 SFC VIS 1 3/4 SLP126 60000 T00110006 10011 20006 400111006 58001
Pressure 29.91 in
Visibility 0.2 miles
Clouds Overcast 200 ft
Windchill 33 °F
Dew Point 33 °F
Humidity 99%
Rainfall 0.01 in
Snow Depth Not available.
7:37 AM 5:12 PM
Waning Gibbous, 75% visible
METAR KDSM 170554Z 32009KT 1/4SM R31/6000VP6000FT BR OVC002 01/01 A2988 RMK AO2 SFC VIS 1 3/4 SLP126 60000 T00110006 10011 20006 400111006 58001

Get Your Daily Forecast Email!

Thanks for signing up!

Be on the lookout for a verification email in your inbox.

You'll start receiving the daily forecast at 8 AM.

×

10-Day Weather Forecast

Almanac

Astronomy

Jan. 17, 2017 Rise Set
Actual Time
Civil Twilight
Nautical Twilight
Astronomical Twilight
Moon
Length of Visible Light
Length of Day
Tomorrow will be .
, % of the Moon is Illuminated

Today's Extremes

State Highs State Lows

Community

WunderPhotos

Upload Photos

1,962,540 photos uploaded!

WunderBlog® & News

Nearby

Air Quality

  Air Quality AQ Index Pollutant
Not available.

Snow Depth

Station Depth Elevation

Earthquake Activity

City Distance Mag. Time & Date
Minimum magnitude displayed is 2.5.

Coastal Water Temperatures

Place Temperature

Stations

Nearby Weather Stations

Station Location Temp. Windchill Dew Point Humidity Wind Precip. Elev Updated Type
                   

Watches & Warnings

There are currently no watches in effect.